sensor_id;sensor_type;location;lat;lon;timestamp;temperature;humidity
3001;DHT22;1510;51.072;6.678;2024-01-11T00:02:00;-7.00;99.90
3001;DHT22;1510;51.072;6.678;2024-01-11T00:04:28;-7.00;99.90
3001;DHT22;1510;51.072;6.678;2024-01-11T00:06:55;-7.00;99.90
3001;DHT22;1510;51.072;6.678;2024-01-11T00:09:21;-7.00;99.90
3001;DHT22;1510;51.072;6.678;2024-01-11T00:11:49;-6.90;99.90
3001;DHT22;1510;51.072;6.678;2024-01-11T00:14:15;-6.90;99.90
3001;DHT22;1510;51.072;6.678;2024-01-11T00:16:42;-6.90;99.90
3001;DHT22;1510;51.072;6.678;2024-01-11T00:19:09;-6.90;99.90
3001;DHT22;1510;51.072;6.678;2024-01-11T00:21:37;-6.90;99.90
3001;DHT22;1510;51.072;6.678;2024-01-11T00:24:04;-6.90;99.90
3001;DHT22;1510;51.072;6.678;2024-01-11T00:26:31;-6.90;99.90
3001;DHT22;1510;51.072;6.678;2024-01-11T00:28:58;-6.70;99.90
3001;DHT22;1510;51.072;6.678;2024-01-11T00:31:25;-6.80;99.90
3001;DHT22;1510;51.072;6.678;2024-01-11T00:33:52;-6.80;99.90
3001;DHT22;1510;51.072;6.678;2024-01-11T00:36:19;-6.90;99.90
3001;DHT22;1510;51.072;6.678;2024-01-11T00:38:47;-7.00;99.90
3001;DHT22;1510;51.072;6.678;2024-01-11T00:41:14;-7.00;99.90
3001;DHT22;1510;51.072;6.678;2024-01-11T00:43:41;-6.90;99.90
3001;DHT22;1510;51.072;6.678;2024-01-11T00:46:08;-6.80;99.90
3001;DHT22;1510;51.072;6.678;2024-01-11T00:48:34;-6.50;99.90
3001;DHT22;1510;51.072;6.678;2024-01-11T00:51:01;-6.40;99.90
3001;DHT22;1510;51.072;6.678;2024-01-11T00:53:30;-6.40;99.90
3001;DHT22;1510;51.072;6.678;2024-01-11T00:55:58;-6.50;99.90
3001;DHT22;1510;51.072;6.678;2024-01-11T00:58:25;-6.60;99.90
3001;DHT22;1510;51.072;6.678;2024-01-11T01:00:52;-6.80;99.90
3001;DHT22;1510;51.072;6.678;2024-01-11T01:03:19;-6.80;99.90
3001;DHT22;1510;51.072;6.678;2024-01-11T01:05:46;-6.90;99.90
3001;DHT22;1510;51.072;6.678;2024-01-11T01:08:13;-6.80;99.90
3001;DHT22;1510;51.072;6.678;2024-01-11T01:10:40;-6.70;99.90
3001;DHT22;1510;51.072;6.678;2024-01-11T01:13:08;-6.70;99.90
3001;DHT22;1510;51.072;6.678;2024-01-11T01:15:34;-6.90;99.90
3001;DHT22;1510;51.072;6.678;2024-01-11T01:18:01;-7.00;99.90
3001;DHT22;1510;51.072;6.678;2024-01-11T01:20:28;-7.00;99.90
3001;DHT22;1510;51.072;6.678;2024-01-11T01:22:55;-7.00;99.90
3001;DHT22;1510;51.072;6.678;2024-01-11T01:25:22;-7.00;99.90
3001;DHT22;1510;51.072;6.678;2024-01-11T01:27:49;-6.90;99.90
3001;DHT22;1510;51.072;6.678;2024-01-11T01:30:17;-6.90;99.90
3001;DHT22;1510;51.072;6.678;2024-01-11T01:32:44;-6.90;99.90
3001;DHT22;1510;51.072;6.678;2024-01-11T01:35:10;-6.90;99.90
3001;DHT22;1510;51.072;6.678;2024-01-11T01:37:37;-6.90;99.90
3001;DHT22;1510;51.072;6.678;2024-01-11T01:40:05;-6.80;99.90
3001;DHT22;1510;51.072;6.678;2024-01-11T01:42:33;-6.80;99.90
3001;DHT22;1510;51.072;6.678;2024-01-11T01:45:00;-6.80;99.90
3001;DHT22;1510;51.072;6.678;2024-01-11T01:47:28;-6.80;99.90
3001;DHT22;1510;51.072;6.678;2024-01-11T01:49:56;-6.80;99.90
3001;DHT22;1510;51.072;6.678;2024-01-11T01:52:23;-6.90;99.90
3001;DHT22;1510;51.072;6.678;2024-01-11T01:54:50;-6.90;99.90
3001;DHT22;1510;51.072;6.678;2024-01-11T01:57:19;-6.90;99.90
3001;DHT22;1510;51.072;6.678;2024-01-11T01:59:50;-6.80;99.90
3001;DHT22;1510;51.072;6.678;2024-01-11T02:02:19;-6.90;99.90
3001;DHT22;1510;51.072;6.678;2024-01-11T02:04:47;-6.90;99.90
3001;DHT22;1510;51.072;6.678;2024-01-11T02:07:15;-6.70;99.90
3001;DHT22;1510;51.072;6.678;2024-01-11T02:09:43;-6.50;99.90
3001;DHT22;1510;51.072;6.678;2024-01-11T02:12:10;-6.40;99.90
3001;DHT22;1510;51.072;6.678;2024-01-11T02:14:38;-6.50;99.90
3001;DHT22;1510;51.072;6.678;2024-01-11T02:17:05;-6.50;99.90
3001;DHT22;1510;51.072;6.678;2024-01-11T02:19:32;-6.60;99.90
3001;DHT22;1510;51.072;6.678;2024-01-11T02:22:07;-6.70;99.90
3001;DHT22;1510;51.072;6.678;2024-01-11T02:24:36;-6.80;99.90
3001;DHT22;1510;51.072;6.678;2024-01-11T02:27:04;-6.80;99.90
3001;DHT22;1510;51.072;6.678;2024-01-11T02:29:31;-6.80;99.90
3001;DHT22;1510;51.072;6.678;2024-01-11T02:32:00;-6.80;99.90
3001;DHT22;1510;51.072;6.678;2024-01-11T02:34:28;-6.90;99.90
3001;DHT22;1510;51.072;6.678;2024-01-11T02:36:55;-6.90;99.90
3001;DHT22;1510;51.072;6.678;2024-01-11T02:39:23;-7.00;99.90
3001;DHT22;1510;51.072;6.678;2024-01-11T02:41:55;-6.90;99.90
3001;DHT22;1510;51.072;6.678;2024-01-11T02:44:22;-6.90;99.90
3001;DHT22;1510;51.072;6.678;2024-01-11T02:46:49;-6.90;99.90
3001;DHT22;1510;51.072;6.678;2024-01-11T02:49:16;-6.90;99.90
3001;DHT22;1510;51.072;6.678;2024-01-11T02:51:42;-6.80;99.90
3001;DHT22;1510;51.072;6.678;2024-01-11T02:54:11;-6.90;99.90
3001;DHT22;1510;51.072;6.678;2024-01-11T02:56:37;-6.90;99.90
3001;DHT22;1510;51.072;6.678;2024-01-11T02:59:05;-6.80;99.90
3001;DHT22;1510;51.072;6.678;2024-01-11T03:01:32;-6.70;99.90
3001;DHT22;1510;51.072;6.678;2024-01-11T03:03:59;-6.60;99.90
3001;DHT22;1510;51.072;6.678;2024-01-11T03:06:26;-6.70;99.90
3001;DHT22;1510;51.072;6.678;2024-01-11T03:08:53;-6.90;99.90
3001;DHT22;1510;51.072;6.678;2024-01-11T03:11:19;-6.90;99.90
3001;DHT22;1510;51.072;6.678;2024-01-11T03:13:46;-7.00;99.90
3001;DHT22;1510;51.072;6.678;2024-01-11T03:16:14;-7.10;99.90
3001;DHT22;1510;51.072;6.678;2024-01-11T03:18:41;-7.10;99.90
3001;DHT22;1510;51.072;6.678;2024-01-11T03:21:08;-7.10;99.90
3001;DHT22;1510;51.072;6.678;2024-01-11T03:23:35;-7.10;99.90
3001;DHT22;1510;51.072;6.678;2024-01-11T03:26:02;-7.00;99.90
3001;DHT22;1510;51.072;6.678;2024-01-11T03:28:28;-7.00;99.90
3001;DHT22;1510;51.072;6.678;2024-01-11T03:30:55;-6.80;99.90
3001;DHT22;1510;51.072;6.678;2024-01-11T03:33:23;-6.80;99.90
3001;DHT22;1510;51.072;6.678;2024-01-11T03:35:50;-7.00;99.90
3001;DHT22;1510;51.072;6.678;2024-01-11T03:38:17;-7.10;99.90
3001;DHT22;1510;51.072;6.678;2024-01-11T03:40:44;-7.10;99.90
3001;DHT22;1510;51.072;6.678;2024-01-11T03:43:10;-7.10;99.90
3001;DHT22;1510;51.072;6.678;2024-01-11T03:45:37;-7.20;99.90
3001;DHT22;1510;51.072;6.678;2024-01-11T03:48:04;-7.10;99.90
3001;DHT22;1510;51.072;6.678;2024-01-11T03:50:32;-7.00;99.90
3001;DHT22;1510;51.072;6.678;2024-01-11T03:52:59;-7.00;99.90
3001;DHT22;1510;51.072;6.678;2024-01-11T03:55:26;-7.10;99.90
3001;DHT22;1510;51.072;6.678;2024-01-11T03:57:53;-7.10;99.90
3001;DHT22;1510;51.072;6.678;2024-01-11T04:00:20;-7.00;99.90
3001;DHT22;1510;51.072;6.678;2024-01-11T04:02:47;-7.20;99.90
3001;DHT22;1510;51.072;6.678;2024-01-11T04:05:13;-7.30;99.90
3001;DHT22;1510;51.072;6.678;2024-01-11T04:07:42;-7.30;99.90
3001;DHT22;1510;51.072;6.678;2024-01-11T04:10:09;-7.20;99.90
3001;DHT22;1510;51.072;6.678;2024-01-11T04:12:36;-7.30;99.90
3001;DHT22;1510;51.072;6.678;2024-01-11T04:15:04;-7.30;99.90
3001;DHT22;1510;51.072;6.678;2024-01-11T04:17:30;-7.30;99.90
3001;DHT22;1510;51.072;6.678;2024-01-11T04:19:57;-7.30;99.90
3001;DHT22;1510;51.072;6.678;2024-01-11T04:22:24;-7.50;99.90
3001;DHT22;1510;51.072;6.678;2024-01-11T04:24:52;-7.50;99.90
3001;DHT22;1510;51.072;6.678;2024-01-11T04:27:19;-7.50;99.90
3001;DHT22;1510;51.072;6.678;2024-01-11T04:29:45;-7.40;99.90
3001;DHT22;1510;51.072;6.678;2024-01-11T04:32:12;-7.30;99.90
3001;DHT22;1510;51.072;6.678;2024-01-11T04:34:39;-7.10;99.90
3001;DHT22;1510;51.072;6.678;2024-01-11T04:37:06;-7.10;99.90
3001;DHT22;1510;51.072;6.678;2024-01-11T04:39:33;-7.20;99.90
3001;DHT22;1510;51.072;6.678;2024-01-11T04:42:01;-7.30;99.90
3001;DHT22;1510;51.072;6.678;2024-01-11T04:44:28;-7.30;99.90
3001;DHT22;1510;51.072;6.678;2024-01-11T04:46:55;-7.20;99.90
3001;DHT22;1510;51.072;6.678;2024-01-11T04:49:22;-7.10;99.90
3001;DHT22;1510;51.072;6.678;2024-01-11T04:51:49;-7.00;99.90
3001;DHT22;1510;51.072;6.678;2024-01-11T04:54:16;-7.10;99.90
3001;DHT22;1510;51.072;6.678;2024-01-11T04:56:42;-7.10;99.90
3001;DHT22;1510;51.072;6.678;2024-01-11T04:59:11;-7.20;99.90
3001;DHT22;1510;51.072;6.678;2024-01-11T05:01:38;-7.10;99.90
3001;DHT22;1510;51.072;6.678;2024-01-11T05:04:06;-7.20;99.90
3001;DHT22;1510;51.072;6.678;2024-01-11T05:06:33;-7.30;99.90
3001;DHT22;1510;51.072;6.678;2024-01-11T05:09:00;-7.40;99.90
3001;DHT22;1510;51.072;6.678;2024-01-11T05:11:27;-7.40;99.90
3001;DHT22;1510;51.072;6.678;2024-01-11T05:13:54;-7.40;99.90
3001;DHT22;1510;51.072;6.678;2024-01-11T05:16:23;-7.40;99.90
3001;DHT22;1510;51.072;6.678;2024-01-11T05:18:50;-7.40;99.90
3001;DHT22;1510;51.072;6.678;2024-01-11T05:21:18;-7.40;99.90
3001;DHT22;1510;51.072;6.678;2024-01-11T05:23:45;-7.40;99.90
3001;DHT22;1510;51.072;6.678;2024-01-11T05:26:13;-7.40;99.90
3001;DHT22;1510;51.072;6.678;2024-01-11T05:28:40;-7.30;99.90
3001;DHT22;1510;51.072;6.678;2024-01-11T05:31:09;-7.30;99.90
3001;DHT22;1510;51.072;6.678;2024-01-11T05:33:38;-7.30;99.90
3001;DHT22;1510;51.072;6.678;2024-01-11T05:36:05;-7.20;99.90
3001;DHT22;1510;51.072;6.678;2024-01-11T05:38:32;-7.20;99.90
3001;DHT22;1510;51.072;6.678;2024-01-11T05:40:59;-7.20;99.90
3001;DHT22;1510;51.072;6.678;2024-01-11T05:43:26;-7.10;99.90
3001;DHT22;1510;51.072;6.678;2024-01-11T05:45:52;-7.10;99.90
3001;DHT22;1510;51.072;6.678;2024-01-11T05:48:19;-7.20;99.90
3001;DHT22;1510;51.072;6.678;2024-01-11T05:50:47;-7.10;99.90
3001;DHT22;1510;51.072;6.678;2024-01-11T05:53:14;-7.10;99.90
3001;DHT22;1510;51.072;6.678;2024-01-11T05:55:42;-7.10;99.90
3001;DHT22;1510;51.072;6.678;2024-01-11T05:58:09;-7.30;99.90
3001;DHT22;1510;51.072;6.678;2024-01-11T06:00:36;-7.10;99.90
3001;DHT22;1510;51.072;6.678;2024-01-11T06:03:03;-7.10;99.90
3001;DHT22;1510;51.072;6.678;2024-01-11T06:05:30;-7.10;99.90
3001;DHT22;1510;51.072;6.678;2024-01-11T06:07:58;-7.20;99.90
3001;DHT22;1510;51.072;6.678;2024-01-11T06:10:25;-7.30;99.90
3001;DHT22;1510;51.072;6.678;2024-01-11T06:12:52;-7.30;99.90
3001;DHT22;1510;51.072;6.678;2024-01-11T06:15:19;-7.50;99.90
3001;DHT22;1510;51.072;6.678;2024-01-11T06:17:45;-7.40;99.90
3001;DHT22;1510;51.072;6.678;2024-01-11T06:20:12;-7.50;99.90
3001;DHT22;1510;51.072;6.678;2024-01-11T06:22:39;-7.40;99.90
3001;DHT22;1510;51.072;6.678;2024-01-11T06:25:08;-7.50;99.90
3001;DHT22;1510;51.072;6.678;2024-01-11T06:27:35;-7.50;99.90
3001;DHT22;1510;51.072;6.678;2024-01-11T06:30:02;-7.60;99.90
3001;DHT22;1510;51.072;6.678;2024-01-11T06:32:29;-7.70;99.90
3001;DHT22;1510;51.072;6.678;2024-01-11T06:34:56;-7.60;99.90
3001;DHT22;1510;51.072;6.678;2024-01-11T06:37:23;-7.40;99.90
3001;DHT22;1510;51.072;6.678;2024-01-11T06:39:49;-7.40;99.90
3001;DHT22;1510;51.072;6.678;2024-01-11T06:42:18;-7.40;99.90
3001;DHT22;1510;51.072;6.678;2024-01-11T06:44:45;-7.40;99.90
3001;DHT22;1510;51.072;6.678;2024-01-11T06:47:12;-7.50;99.90
3001;DHT22;1510;51.072;6.678;2024-01-11T06:49:39;-7.70;99.90
3001;DHT22;1510;51.072;6.678;2024-01-11T06:52:06;-7.70;99.90
3001;DHT22;1510;51.072;6.678;2024-01-11T06:54:32;-7.80;99.90
3001;DHT22;1510;51.072;6.678;2024-01-11T06:56:59;-7.70;99.90
3001;DHT22;1510;51.072;6.678;2024-01-11T06:59:27;-7.50;99.90
3001;DHT22;1510;51.072;6.678;2024-01-11T07:01:54;-7.40;99.90
3001;DHT22;1510;51.072;6.678;2024-01-11T07:04:21;-7.50;99.90
3001;DHT22;1510;51.072;6.678;2024-01-11T07:06:48;-7.50;99.90
3001;DHT22;1510;51.072;6.678;2024-01-11T07:09:14;-7.70;99.90
3001;DHT22;1510;51.072;6.678;2024-01-11T07:11:42;-7.80;99.90
3001;DHT22;1510;51.072;6.678;2024-01-11T07:14:09;-7.70;99.90
3001;DHT22;1510;51.072;6.678;2024-01-11T07:16:37;-7.60;99.90
3001;DHT22;1510;51.072;6.678;2024-01-11T07:19:04;-7.70;99.90
3001;DHT22;1510;51.072;6.678;2024-01-11T07:21:31;-7.70;99.90
3001;DHT22;1510;51.072;6.678;2024-01-11T07:23:58;-7.70;99.90
3001;DHT22;1510;51.072;6.678;2024-01-11T07:26:25;-7.60;99.90
3001;DHT22;1510;51.072;6.678;2024-01-11T07:28:53;-7.50;99.90
3001;DHT22;1510;51.072;6.678;2024-01-11T07:31:21;-7.50;99.90
3001;DHT22;1510;51.072;6.678;2024-01-11T07:33:49;-7.40;99.90
3001;DHT22;1510;51.072;6.678;2024-01-11T07:36:16;-7.40;99.90
3001;DHT22;1510;51.072;6.678;2024-01-11T07:38:43;-7.50;99.90
3001;DHT22;1510;51.072;6.678;2024-01-11T07:41:10;-7.40;99.90
3001;DHT22;1510;51.072;6.678;2024-01-11T07:43:37;-7.40;99.90
3001;DHT22;1510;51.072;6.678;2024-01-11T07:46:04;-7.40;99.90
3001;DHT22;1510;51.072;6.678;2024-01-11T07:48:33;-7.40;99.90
3001;DHT22;1510;51.072;6.678;2024-01-11T07:51:01;-7.50;99.90
3001;DHT22;1510;51.072;6.678;2024-01-11T07:53:28;-7.30;99.90
3001;DHT22;1510;51.072;6.678;2024-01-11T07:55:57;-7.30;99.90
3001;DHT22;1510;51.072;6.678;2024-01-11T07:58:24;-7.30;99.90
3001;DHT22;1510;51.072;6.678;2024-01-11T08:00:51;-7.30;99.90
3001;DHT22;1510;51.072;6.678;2024-01-11T08:03:17;-7.10;99.90
3001;DHT22;1510;51.072;6.678;2024-01-11T08:05:44;-7.10;99.90
3001;DHT22;1510;51.072;6.678;2024-01-11T08:08:12;-7.20;99.90
3001;DHT22;1510;51.072;6.678;2024-01-11T08:10:39;-7.20;99.90
3001;DHT22;1510;51.072;6.678;2024-01-11T08:13:06;-7.30;99.90
3001;DHT22;1510;51.072;6.678;2024-01-11T08:15:35;-7.30;99.90
3001;DHT22;1510;51.072;6.678;2024-01-11T08:18:04;-7.20;99.90
3001;DHT22;1510;51.072;6.678;2024-01-11T08:20:30;-7.20;99.90
3001;DHT22;1510;51.072;6.678;2024-01-11T08:22:58;-7.00;99.90
3001;DHT22;1510;51.072;6.678;2024-01-11T08:25:26;-7.10;99.90
3001;DHT22;1510;51.072;6.678;2024-01-11T08:27:53;-7.00;99.90
3001;DHT22;1510;51.072;6.678;2024-01-11T08:30:20;-6.90;99.90
3001;DHT22;1510;51.072;6.678;2024-01-11T08:32:47;-6.80;99.90
3001;DHT22;1510;51.072;6.678;2024-01-11T08:35:14;-6.80;99.90
3001;DHT22;1510;51.072;6.678;2024-01-11T08:37:42;-6.70;99.90
3001;DHT22;1510;51.072;6.678;2024-01-11T08:40:09;-6.40;99.90
3001;DHT22;1510;51.072;6.678;2024-01-11T08:42:37;-6.30;99.90
3001;DHT22;1510;51.072;6.678;2024-01-11T08:45:05;-6.30;99.90
3001;DHT22;1510;51.072;6.678;2024-01-11T08:47:33;-6.20;99.90
3001;DHT22;1510;51.072;6.678;2024-01-11T08:50:00;-6.20;99.90
3001;DHT22;1510;51.072;6.678;2024-01-11T08:52:27;-6.10;99.90
3001;DHT22;1510;51.072;6.678;2024-01-11T08:54:54;-6.10;99.90
3001;DHT22;1510;51.072;6.678;2024-01-11T08:57:21;-6.00;99.90
3001;DHT22;1510;51.072;6.678;2024-01-11T08:59:49;-5.90;99.90
3001;DHT22;1510;51.072;6.678;2024-01-11T09:02:16;-5.80;99.90
3001;DHT22;1510;51.072;6.678;2024-01-11T09:04:42;-5.70;99.90
3001;DHT22;1510;51.072;6.678;2024-01-11T09:07:09;-5.50;99.90
3001;DHT22;1510;51.072;6.678;2024-01-11T09:09:36;-5.40;99.90
3001;DHT22;1510;51.072;6.678;2024-01-11T09:12:03;-5.40;99.90
3001;DHT22;1510;51.072;6.678;2024-01-11T09:14:30;-5.40;99.90
3001;DHT22;1510;51.072;6.678;2024-01-11T09:16:58;-5.30;99.90
3001;DHT22;1510;51.072;6.678;2024-01-11T09:19:25;-5.20;99.90
3001;DHT22;1510;51.072;6.678;2024-01-11T09:21:52;-5.20;99.90
3001;DHT22;1510;51.072;6.678;2024-01-11T09:24:19;-5.10;99.90
3001;DHT22;1510;51.072;6.678;2024-01-11T09:26:46;-5.00;99.90
3001;DHT22;1510;51.072;6.678;2024-01-11T09:29:15;-5.00;99.90
3001;DHT22;1510;51.072;6.678;2024-01-11T09:31:42;-4.80;99.90
3001;DHT22;1510;51.072;6.678;2024-01-11T09:34:10;-4.70;99.90
3001;DHT22;1510;51.072;6.678;2024-01-11T09:36:37;-4.60;99.90
3001;DHT22;1510;51.072;6.678;2024-01-11T09:39:05;-4.60;99.90
3001;DHT22;1510;51.072;6.678;2024-01-11T09:41:35;-4.50;99.90
3001;DHT22;1510;51.072;6.678;2024-01-11T09:44:05;-4.40;99.90
3001;DHT22;1510;51.072;6.678;2024-01-11T09:46:32;-4.30;99.90
3001;DHT22;1510;51.072;6.678;2024-01-11T09:49:00;-4.30;99.90
3001;DHT22;1510;51.072;6.678;2024-01-11T09:51:30;-4.20;99.90
3001;DHT22;1510;51.072;6.678;2024-01-11T09:53:58;-4.10;99.90
3001;DHT22;1510;51.072;6.678;2024-01-11T09:56:26;-4.10;99.90
3001;DHT22;1510;51.072;6.678;2024-01-11T09:58:54;-4.00;99.90
3001;DHT22;1510;51.072;6.678;2024-01-11T10:01:21;-4.00;99.90
3001;DHT22;1510;51.072;6.678;2024-01-11T10:03:48;-3.80;99.90
3001;DHT22;1510;51.072;6.678;2024-01-11T10:06:17;-3.80;99.90
3001;DHT22;1510;51.072;6.678;2024-01-11T10:08:46;-3.80;99.90
3001;DHT22;1510;51.072;6.678;2024-01-11T10:11:13;-3.70;99.90
3001;DHT22;1510;51.072;6.678;2024-01-11T10:13:40;-3.70;99.90
3001;DHT22;1510;51.072;6.678;2024-01-11T10:16:08;-3.60;99.90
3001;DHT22;1510;51.072;6.678;2024-01-11T10:18:36;-3.60;99.90
3001;DHT22;1510;51.072;6.678;2024-01-11T10:21:03;-3.50;99.90
3001;DHT22;1510;51.072;6.678;2024-01-11T10:23:33;-3.40;99.90
3001;DHT22;1510;51.072;6.678;2024-01-11T10:26:02;-3.30;99.90
3001;DHT22;1510;51.072;6.678;2024-01-11T10:28:29;-3.30;99.90
3001;DHT22;1510;51.072;6.678;2024-01-11T10:30:56;-3.20;99.90
3001;DHT22;1510;51.072;6.678;2024-01-11T10:33:23;-3.20;99.90
3001;DHT22;1510;51.072;6.678;2024-01-11T10:35:50;-3.10;99.90
3001;DHT22;1510;51.072;6.678;2024-01-11T10:38:17;-3.00;99.90
3001;DHT22;1510;51.072;6.678;2024-01-11T10:40:44;-3.00;99.90
3001;DHT22;1510;51.072;6.678;2024-01-11T10:43:15;-2.90;99.90
3001;DHT22;1510;51.072;6.678;2024-01-11T10:45:48;-2.80;99.90
3001;DHT22;1510;51.072;6.678;2024-01-11T10:48:21;-2.80;99.90
3001;DHT22;1510;51.072;6.678;2024-01-11T10:50:53;-2.70;99.90
3001;DHT22;1510;51.072;6.678;2024-01-11T10:53:26;-2.70;99.90
3001;DHT22;1510;51.072;6.678;2024-01-11T10:55:55;-2.60;99.90
3001;DHT22;1510;51.072;6.678;2024-01-11T10:58:26;-2.50;99.90
3001;DHT22;1510;51.072;6.678;2024-01-11T11:00:54;-2.40;99.90
3001;DHT22;1510;51.072;6.678;2024-01-11T11:03:23;-2.30;99.90
3001;DHT22;1510;51.072;6.678;2024-01-11T11:05:53;-2.20;99.90
3001;DHT22;1510;51.072;6.678;2024-01-11T11:08:22;-2.20;99.90
3001;DHT22;1510;51.072;6.678;2024-01-11T11:10:51;-2.10;99.90
3001;DHT22;1510;51.072;6.678;2024-01-11T11:13:21;-2.00;99.90
3001;DHT22;1510;51.072;6.678;2024-01-11T11:15:50;-2.00;99.90
3001;DHT22;1510;51.072;6.678;2024-01-11T11:18:17;-1.90;99.90
3001;DHT22;1510;51.072;6.678;2024-01-11T11:20:45;-1.80;99.90
3001;DHT22;1510;51.072;6.678;2024-01-11T11:23:14;-1.80;99.90
3001;DHT22;1510;51.072;6.678;2024-01-11T11:25:44;-1.70;99.90
3001;DHT22;1510;51.072;6.678;2024-01-11T11:28:11;-1.70;99.90
3001;DHT22;1510;51.072;6.678;2024-01-11T11:30:40;-1.50;99.90
3001;DHT22;1510;51.072;6.678;2024-01-11T11:33:10;-1.40;99.90
3001;DHT22;1510;51.072;6.678;2024-01-11T11:35:37;-1.30;99.90
3001;DHT22;1510;51.072;6.678;2024-01-11T11:38:05;-1.30;99.90
3001;DHT22;1510;51.072;6.678;2024-01-11T11:40:32;-1.20;99.90
3001;DHT22;1510;51.072;6.678;2024-01-11T11:43:04;-0.90;99.90
3001;DHT22;1510;51.072;6.678;2024-01-11T11:45:31;-0.50;99.90
3001;DHT22;1510;51.072;6.678;2024-01-11T11:47:58;-0.10;99.90
3001;DHT22;1510;51.072;6.678;2024-01-11T11:50:27;0.20;99.90
3001;DHT22;1510;51.072;6.678;2024-01-11T11:52:57;0.50;99.90
3001;DHT22;1510;51.072;6.678;2024-01-11T11:55:24;0.60;98.90
3001;DHT22;1510;51.072;6.678;2024-01-11T11:57:51;0.80;95.30
3001;DHT22;1510;51.072;6.678;2024-01-11T12:00:19;1.00;95.10
3001;DHT22;1510;51.072;6.678;2024-01-11T12:02:46;1.00;94.40
3001;DHT22;1510;51.072;6.678;2024-01-11T12:05:14;1.20;94.60
3001;DHT22;1510;51.072;6.678;2024-01-11T12:07:42;1.10;93.70
3001;DHT22;1510;51.072;6.678;2024-01-11T12:10:09;1.20;85.70
3001;DHT22;1510;51.072;6.678;2024-01-11T12:12:36;1.40;85.90
3001;DHT22;1510;51.072;6.678;2024-01-11T12:15:04;1.40;78.40
3001;DHT22;1510;51.072;6.678;2024-01-11T12:17:31;1.50;78.50
3001;DHT22;1510;51.072;6.678;2024-01-11T12:19:58;1.50;71.80
3001;DHT22;1510;51.072;6.678;2024-01-11T12:22:25;1.70;70.90
3001;DHT22;1510;51.072;6.678;2024-01-11T12:24:53;2.00;71.10
3001;DHT22;1510;51.072;6.678;2024-01-11T12:27:20;2.20;71.30
3001;DHT22;1510;51.072;6.678;2024-01-11T12:29:47;2.30;71.40
3001;DHT22;1510;51.072;6.678;2024-01-11T12:32:14;2.40;62.80
3001;DHT22;1510;51.072;6.678;2024-01-11T12:34:43;2.90;71.90
3001;DHT22;1510;51.072;6.678;2024-01-11T12:37:10;2.90;64.00
3001;DHT22;1510;51.072;6.678;2024-01-11T12:39:38;3.30;57.40
3001;DHT22;1510;51.072;6.678;2024-01-11T12:42:06;3.50;56.30
3001;DHT22;1510;51.072;6.678;2024-01-11T12:44:35;3.70;56.50
3001;DHT22;1510;51.072;6.678;2024-01-11T12:47:03;3.40;56.20
3001;DHT22;1510;51.072;6.678;2024-01-11T12:49:32;3.20;56.10
3001;DHT22;1510;51.072;6.678;2024-01-11T12:51:59;3.30;56.10
3001;DHT22;1510;51.072;6.678;2024-01-11T12:54:25;3.20;47.70
3001;DHT22;1510;51.072;6.678;2024-01-11T12:56:56;3.00;50.10
3001;DHT22;1510;51.072;6.678;2024-01-11T12:59:27;2.80;55.70
3001;DHT22;1510;51.072;6.678;2024-01-11T13:01:54;2.80;51.70
3001;DHT22;1510;51.072;6.678;2024-01-11T13:04:22;2.60;53.60
3001;DHT22;1510;51.072;6.678;2024-01-11T13:06:49;2.80;55.70
3001;DHT22;1510;51.072;6.678;2024-01-11T13:09:16;2.80;55.70
3001;DHT22;1510;51.072;6.678;2024-01-11T13:11:43;2.90;55.80
3001;DHT22;1510;51.072;6.678;2024-01-11T13:14:10;2.70;55.60
3001;DHT22;1510;51.072;6.678;2024-01-11T13:16:45;2.70;55.60
3001;DHT22;1510;51.072;6.678;2024-01-11T13:19:14;2.30;55.30
3001;DHT22;1510;51.072;6.678;2024-01-11T13:21:41;2.30;55.30
3001;DHT22;1510;51.072;6.678;2024-01-11T13:24:07;2.20;55.20
3001;DHT22;1510;51.072;6.678;2024-01-11T13:26:35;2.20;55.20
3001;DHT22;1510;51.072;6.678;2024-01-11T13:29:03;2.30;55.30
3001;DHT22;1510;51.072;6.678;2024-01-11T13:31:30;2.20;55.20
3001;DHT22;1510;51.072;6.678;2024-01-11T13:33:58;1.80;54.80
3001;DHT22;1510;51.072;6.678;2024-01-11T13:36:24;1.80;54.90
3001;DHT22;1510;51.072;6.678;2024-01-11T13:38:51;1.50;54.60
3001;DHT22;1510;51.072;6.678;2024-01-11T13:41:18;1.40;54.50
3001;DHT22;1510;51.072;6.678;2024-01-11T13:43:45;1.20;54.40
3001;DHT22;1510;51.072;6.678;2024-01-11T13:46:13;1.00;54.20
3001;DHT22;1510;51.072;6.678;2024-01-11T13:48:45;1.00;62.40
3001;DHT22;1510;51.072;6.678;2024-01-11T13:51:13;0.90;62.30
3001;DHT22;1510;51.072;6.678;2024-01-11T13:53:40;0.80;54.30
3001;DHT22;1510;51.072;6.678;2024-01-11T13:56:07;0.80;61.60
3001;DHT22;1510;51.072;6.678;2024-01-11T13:58:34;0.80;62.30
3001;DHT22;1510;51.072;6.678;2024-01-11T14:01:01;0.80;62.30
3001;DHT22;1510;51.072;6.678;2024-01-11T14:03:28;0.70;70.00
3001;DHT22;1510;51.072;6.678;2024-01-11T14:05:55;0.70;70.00
3001;DHT22;1510;51.072;6.678;2024-01-11T14:08:24;0.60;70.00
3001;DHT22;1510;51.072;6.678;2024-01-11T14:10:51;0.60;70.00
3001;DHT22;1510;51.072;6.678;2024-01-11T14:13:18;0.60;70.00
3001;DHT22;1510;51.072;6.678;2024-01-11T14:15:48;0.50;69.80
3001;DHT22;1510;51.072;6.678;2024-01-11T14:18:16;0.50;69.90
3001;DHT22;1510;51.072;6.678;2024-01-11T14:20:43;0.50;69.90
3001;DHT22;1510;51.072;6.678;2024-01-11T14:23:10;0.50;69.90
3001;DHT22;1510;51.072;6.678;2024-01-11T14:25:38;0.50;69.90
3001;DHT22;1510;51.072;6.678;2024-01-11T14:28:05;0.40;69.90
3001;DHT22;1510;51.072;6.678;2024-01-11T14:30:32;0.40;69.80
3001;DHT22;1510;51.072;6.678;2024-01-11T14:32:58;0.30;74.90
3001;DHT22;1510;51.072;6.678;2024-01-11T14:35:25;0.30;75.00
3001;DHT22;1510;51.072;6.678;2024-01-11T14:37:52;0.20;73.10
3001;DHT22;1510;51.072;6.678;2024-01-11T14:40:19;0.20;73.10
3001;DHT22;1510;51.072;6.678;2024-01-11T14:42:48;0.20;73.60
3001;DHT22;1510;51.072;6.678;2024-01-11T14:45:16;0.10;77.60
3001;DHT22;1510;51.072;6.678;2024-01-11T14:47:43;0.10;77.50
3001;DHT22;1510;51.072;6.678;2024-01-11T14:50:10;0.00;77.20
3001;DHT22;1510;51.072;6.678;2024-01-11T14:52:37;0.00;77.10
3001;DHT22;1510;51.072;6.678;2024-01-11T14:55:05;0.00;77.10
3001;DHT22;1510;51.072;6.678;2024-01-11T14:57:35;0.00;77.20
3001;DHT22;1510;51.072;6.678;2024-01-11T15:00:04;-0.10;70.50
3001;DHT22;1510;51.072;6.678;2024-01-11T15:02:32;-0.10;69.40
3001;DHT22;1510;51.072;6.678;2024-01-11T15:04:59;-0.20;77.00
3001;DHT22;1510;51.072;6.678;2024-01-11T15:07:26;-0.20;76.60
3001;DHT22;1510;51.072;6.678;2024-01-11T15:09:53;-0.20;73.00
3001;DHT22;1510;51.072;6.678;2024-01-11T15:12:20;-0.30;72.20
3001;DHT22;1510;51.072;6.678;2024-01-11T15:14:47;-0.30;71.60
3001;DHT22;1510;51.072;6.678;2024-01-11T15:17:17;-0.40;73.30
3001;DHT22;1510;51.072;6.678;2024-01-11T15:19:44;-0.40;76.80
3001;DHT22;1510;51.072;6.678;2024-01-11T15:22:11;-0.50;77.00
3001;DHT22;1510;51.072;6.678;2024-01-11T15:24:41;-0.60;84.20
3001;DHT22;1510;51.072;6.678;2024-01-11T15:27:08;-0.80;84.00
3001;DHT22;1510;51.072;6.678;2024-01-11T15:29:34;-0.90;85.30
3001;DHT22;1510;51.072;6.678;2024-01-11T15:32:01;-0.80;84.10
3001;DHT22;1510;51.072;6.678;2024-01-11T15:34:30;-0.90;83.90
3001;DHT22;1510;51.072;6.678;2024-01-11T15:36:57;-0.90;83.90
3001;DHT22;1510;51.072;6.678;2024-01-11T15:39:23;-0.90;83.90
3001;DHT22;1510;51.072;6.678;2024-01-11T15:41:53;-1.10;86.20
3001;DHT22;1510;51.072;6.678;2024-01-11T15:44:20;-1.20;87.40
3001;DHT22;1510;51.072;6.678;2024-01-11T15:46:47;-1.20;85.40
3001;DHT22;1510;51.072;6.678;2024-01-11T15:49:14;-1.20;83.70
3001;DHT22;1510;51.072;6.678;2024-01-11T15:51:42;-1.20;83.70
3001;DHT22;1510;51.072;6.678;2024-01-11T15:54:09;-1.30;85.10
3001;DHT22;1510;51.072;6.678;2024-01-11T15:56:37;-1.40;86.90
3001;DHT22;1510;51.072;6.678;2024-01-11T15:59:05;-1.40;83.60
3001;DHT22;1510;51.072;6.678;2024-01-11T16:01:32;-1.50;87.90
3001;DHT22;1510;51.072;6.678;2024-01-11T16:04:01;-1.60;90.30
3001;DHT22;1510;51.072;6.678;2024-01-11T16:06:29;-1.70;92.50